createdAt,value
2018-02-07T00:00:37.997Z,95.4
2018-02-07T00:01:39.798Z,95.4
2018-02-07T00:02:41.553Z,95.4
2018-02-07T00:03:43.277Z,95.3
2018-02-07T00:04:44.984Z,95.4
2018-02-07T00:05:46.772Z,95.6
2018-02-07T00:06:48.488Z,95.6
2018-02-07T00:07:50.282Z,95.5
2018-02-07T00:08:52.087Z,95.4
2018-02-07T00:09:54.054Z,95.8
2018-02-07T00:10:56.875Z,95.6
2018-02-07T00:11:58.930Z,95.5
2018-02-07T00:13:00.703Z,95.6
2018-02-07T00:14:02.527Z,95.0
2018-02-07T00:15:04.457Z,95.6
2018-02-07T00:16:06.260Z,95.2
2018-02-07T00:17:07.988Z,95.6
2018-02-07T00:18:09.759Z,95.6
2018-02-07T00:19:13.604Z,96.2
2018-02-07T00:20:15.393Z,95.6
2018-02-07T00:21:17.291Z,94.9
2018-02-07T00:22:19.055Z,95.7
2018-02-07T00:23:20.816Z,95.8
2018-02-07T00:24:22.560Z,95.7
2018-02-07T00:25:24.336Z,95.9
2018-02-07T00:26:26.105Z,96.2
2018-02-07T00:27:27.977Z,95.7
2018-02-07T00:28:29.776Z,95.4
2018-02-07T00:29:31.554Z,96.1
2018-02-07T00:30:33.333Z,95.7
2018-02-07T00:31:35.119Z,95.7
2018-02-07T00:32:36.888Z,95.6
2018-02-07T00:33:38.653Z,95.3
2018-02-07T00:34:40.457Z,95.6
2018-02-07T00:35:42.226Z,95.2
2018-02-07T00:36:44.827Z,95.2
2018-02-07T00:37:46.623Z,95.6
2018-02-07T00:38:48.430Z,95.6
2018-02-07T00:39:50.442Z,95.6
2018-02-07T00:40:52.852Z,95.7
2018-02-07T00:41:54.594Z,95.8
2018-02-07T00:42:56.485Z,95.8
2018-02-07T00:43:58.340Z,96.0
2018-02-07T00:45:00.813Z,95.6
2018-02-07T00:46:03.484Z,95.9
2018-02-07T00:47:05.267Z,95.7
2018-02-07T00:48:07.870Z,95.6
2018-02-07T00:49:09.595Z,95.9
2018-02-07T00:50:11.356Z,95.6
2018-02-07T00:51:13.116Z,95.6
2018-02-07T00:52:15.842Z,95.6
2018-02-07T00:53:17.564Z,96.2
2018-02-07T00:54:20.318Z,96.2
2018-02-07T00:55:22.859Z,95.7
2018-02-07T00:56:24.613Z,96.2
2018-02-07T00:57:26.453Z,96.0
2018-02-07T00:58:28.303Z,95.9
2018-02-07T00:59:30.124Z,96.0
2018-02-07T01:00:31.919Z,96.4
2018-02-07T01:01:33.725Z,96.2
2018-02-07T01:02:36.354Z,95.6
2018-02-07T01:03:38.200Z,96.2
2018-02-07T01:04:40.077Z,96.2
2018-02-07T01:05:42.836Z,96.4
2018-02-07T01:06:45.376Z,96.4
2018-02-07T01:07:47.873Z,96.4
2018-02-07T01:08:49.713Z,96.6
2018-02-07T01:09:51.567Z,96.2
2018-02-07T01:10:53.309Z,96.8
2018-02-07T01:11:55.230Z,96.4
2018-02-07T01:12:57.051Z,96.8
2018-02-07T01:13:58.832Z,96.6
2018-02-07T01:15:00.601Z,96.7
2018-02-07T01:16:09.331Z,96.4
2018-02-07T01:17:11.126Z,96.4
2018-02-07T01:18:13.863Z,97.5
2018-02-07T01:19:15.623Z,97.2
2018-02-07T01:20:18.293Z,97.2
2018-02-07T01:21:20.125Z,97.3
2018-02-07T01:22:21.938Z,97.7
2018-02-07T01:23:23.753Z,97.2
2018-02-07T01:24:25.512Z,97.3
2018-02-07T01:25:27.330Z,97.6
2018-02-07T01:26:29.850Z,96.8
2018-02-07T01:27:31.652Z,97.2
2018-02-07T01:28:34.336Z,97.2
2018-02-07T01:29:36.131Z,96.7
2018-02-07T01:30:37.943Z,96.3
2018-02-07T01:31:39.737Z,96.4
2018-02-07T01:32:41.502Z,96.3
2018-02-07T01:33:43.256Z,96.4
2018-02-07T01:34:45.117Z,96.4
2018-02-07T01:35:46.935Z,97.0
2018-02-07T01:36:48.694Z,96.7
2018-02-07T01:37:53.314Z,97.5
2018-02-07T01:38:55.094Z,96.8
2018-02-07T01:39:56.903Z,96.5
2018-02-07T01:40:58.693Z,96.6
2018-02-07T01:42:01.361Z,97.3
2018-02-07T01:43:03.148Z,97.3
2018-02-07T01:44:05.876Z,97.2
2018-02-07T01:45:07.646Z,96.3
2018-02-07T01:46:09.385Z,97.0
2018-02-07T01:47:11.171Z,97.3
2018-02-07T01:48:13.845Z,97.0
2018-02-07T01:49:16.399Z,97.2
2018-02-07T01:50:20.925Z,97.5
2018-02-07T01:51:22.654Z,97.7
2018-02-07T01:52:24.404Z,97.9
2018-02-07T01:53:26.270Z,98.1
2018-02-07T01:54:28.098Z,98.0
2018-02-07T01:55:29.873Z,98.6
2018-02-07T01:56:32.344Z,98.1
2018-02-07T01:57:34.191Z,97.8
2018-02-07T01:58:36.089Z,97.8
2018-02-07T01:59:37.895Z,97.6
2018-02-07T02:00:39.715Z,97.8
2018-02-07T02:01:41.558Z,97.8
2018-02-07T02:02:43.305Z,97.7
2018-02-07T02:03:45.135Z,98.9
2018-02-07T02:04:47.819Z,97.8
2018-02-07T02:05:50.346Z,97.6
2018-02-07T02:06:52.812Z,97.5
2018-02-07T02:07:54.568Z,97.8
2018-02-07T02:08:57.293Z,98.1
2018-02-07T02:09:59.159Z,97.8
2018-02-07T02:11:01.882Z,98.7
2018-02-07T02:12:03.671Z,98.7
2018-02-07T02:13:05.461Z,98.5
2018-02-07T02:14:09.859Z,99.0
2018-02-07T02:15:11.704Z,99.0
2018-02-07T02:16:14.345Z,99.1
2018-02-07T02:17:18.866Z,99.0
2018-02-07T02:18:20.614Z,99.0
2018-02-07T02:19:22.478Z,98.9
2018-02-07T02:20:24.220Z,98.5
2018-02-07T02:21:26.876Z,98.8
2018-02-07T02:22:29.420Z,98.7
2018-02-07T02:23:31.206Z,98.8
2018-02-07T02:24:35.922Z,98.5
2018-02-07T02:25:37.698Z,98.3
2018-02-07T02:26:42.297Z,97.4
2018-02-07T02:27:44.154Z,97.5
2018-02-07T02:28:45.920Z,98.0
2018-02-07T02:29:47.741Z,98.8
2018-02-07T02:30:49.473Z,98.2
2018-02-07T02:31:51.338Z,98.9
2018-02-07T02:32:53.151Z,97.6
2018-02-07T02:33:54.943Z,98.0
2018-02-07T02:34:56.764Z,97.6
2018-02-07T02:35:58.555Z,97.9
2018-02-07T02:37:00.354Z,97.7
2018-02-07T02:38:02.881Z,97.5
2018-02-07T02:39:05.353Z,98.0
2018-02-07T02:40:07.126Z,97.9
2018-02-07T02:41:08.962Z,97.5
2018-02-07T02:42:10.807Z,97.1
2018-02-07T02:43:13.333Z,98.0
2018-02-07T02:44:15.146Z,98.0
2018-02-07T02:45:16.921Z,97.5
2018-02-07T02:46:19.351Z,97.8
2018-02-07T02:47:21.918Z,97.9
2018-02-07T02:48:23.691Z,97.5
2018-02-07T02:49:25.544Z,97.3
2018-02-07T02:50:27.294Z,97.3
2018-02-07T02:51:29.077Z,98.1
2018-02-07T02:52:30.870Z,97.8
2018-02-07T02:53:32.706Z,98.0
2018-02-07T02:54:34.563Z,97.5
2018-02-07T02:55:36.400Z,97.8
2018-02-07T02:56:38.183Z,97.4
2018-02-07T02:57:40.090Z,97.6
2018-02-07T02:58:41.880Z,97.6
2018-02-07T02:59:43.700Z,97.8
2018-02-07T03:00:45.460Z,97.8
2018-02-07T03:02:01.896Z,97.8
2018-02-07T03:03:03.671Z,98.0
2018-02-07T03:04:08.371Z,97.8
2018-02-07T03:05:12.922Z,97.5
2018-02-07T03:06:14.768Z,97.8
2018-02-07T03:07:16.607Z,97.8
2018-02-07T03:08:18.413Z,97.7
2018-02-07T03:09:20.243Z,97.5
2018-02-07T03:10:21.973Z,97.4
2018-02-07T03:11:23.868Z,98.2
2018-02-07T03:12:26.310Z,99.0
2018-02-07T03:13:28.110Z,98.5
2018-02-07T03:14:29.943Z,98.6
2018-02-07T03:15:31.741Z,98.2
2018-02-07T03:16:34.388Z,98.3
2018-02-07T03:17:36.251Z,98.4
2018-02-07T03:18:38.060Z,98.5
2018-02-07T03:19:39.831Z,98.6
2018-02-07T03:20:41.591Z,98.6
2018-02-07T03:21:44.340Z,98.7
2018-02-07T03:22:46.170Z,98.5
2018-02-07T03:23:47.982Z,99.0
2018-02-07T03:24:49.955Z,99.0
2018-02-07T03:25:51.778Z,98.7
2018-02-07T03:26:53.582Z,98.5
2018-02-07T03:27:55.369Z,98.8
2018-02-07T03:28:57.169Z,98.7
2018-02-07T03:29:58.963Z,98.0
2018-02-07T03:31:00.811Z,98.1
2018-02-07T03:32:02.630Z,97.6
2018-02-07T03:33:04.415Z,98.1
2018-02-07T03:34:06.230Z,97.8
2018-02-07T03:35:07.995Z,97.5
2018-02-07T03:36:09.892Z,97.6
2018-02-07T03:37:11.643Z,97.6
2018-02-07T03:38:13.486Z,97.7
2018-02-07T03:39:15.889Z,97.6
2018-02-07T03:40:17.669Z,97.8
2018-02-07T03:41:19.449Z,97.8
2018-02-07T03:42:21.221Z,97.6
2018-02-07T03:43:23.047Z,97.9
2018-02-07T03:44:24.963Z,97.3
2018-02-07T03:45:27.352Z,97.9
2018-02-07T03:46:29.157Z,98.6
2018-02-07T03:47:31.931Z,98.4
2018-02-07T03:48:33.746Z,98.5
2018-02-07T03:49:35.490Z,97.9
2018-02-07T03:50:37.904Z,98.0
2018-02-07T03:51:39.770Z,97.7
2018-02-07T03:52:41.574Z,99.0
2018-02-07T03:53:43.385Z,98.7
2018-02-07T03:54:45.210Z,98.5
2018-02-07T03:55:46.947Z,98.4
2018-02-07T03:56:49.432Z,99.1
2018-02-07T03:57:51.223Z,98.7
2018-02-07T03:58:53.110Z,98.7
2018-02-07T03:59:54.984Z,98.5
2018-02-07T04:00:59.422Z,98.5
2018-02-07T04:02:01.274Z,98.8
2018-02-07T04:03:03.906Z,97.9
2018-02-07T04:04:06.368Z,97.8
2018-02-07T04:05:08.875Z,97.9
2018-02-07T04:06:10.713Z,98.1
2018-02-07T04:07:12.516Z,97.7
2018-02-07T04:08:14.900Z,97.5
2018-02-07T04:09:16.715Z,98.0
2018-02-07T04:10:19.359Z,98.0
2018-02-07T04:11:21.148Z,98.2
2018-02-07T04:12:23.049Z,98.9
2018-02-07T04:13:24.836Z,98.2
2018-02-07T04:14:27.352Z,97.7
2018-02-07T04:15:29.114Z,97.6
2018-02-07T04:16:30.893Z,97.6
2018-02-07T04:17:33.327Z,97.9
2018-02-07T04:18:35.046Z,97.8
2018-02-07T04:19:36.830Z,97.5
2018-02-07T04:20:39.363Z,97.5
2018-02-07T04:21:41.222Z,97.8
2018-02-07T04:22:43.046Z,97.6
2018-02-07T04:23:44.842Z,97.3
2018-02-07T04:24:46.595Z,97.3
2018-02-07T04:25:48.305Z,97.4
2018-02-07T04:26:50.050Z,97.9
2018-02-07T04:27:51.845Z,98.0
2018-02-07T04:28:54.348Z,97.7
2018-02-07T04:29:56.145Z,97.6
2018-02-07T04:30:57.930Z,96.8
2018-02-07T04:32:00.398Z,97.3
2018-02-07T04:33:04.788Z,97.7
2018-02-07T04:34:06.553Z,97.8
2018-02-07T04:35:08.292Z,97.6
2018-02-07T04:36:10.855Z,98.0
2018-02-07T04:37:13.280Z,97.8
2018-02-07T04:38:17.828Z,98.0
2018-02-07T04:39:22.323Z,97.9
2018-02-07T04:40:24.107Z,97.5
2018-02-07T04:41:25.899Z,97.7
2018-02-07T04:42:30.307Z,97.4
2018-02-07T04:43:32.080Z,97.6
2018-02-07T04:44:36.789Z,97.6
2018-02-07T04:45:39.373Z,97.7
2018-02-07T04:46:41.160Z,97.4
2018-02-07T04:47:43.917Z,98.0
2018-02-07T04:48:45.812Z,98.0
2018-02-07T04:49:47.652Z,97.5
2018-02-07T04:50:49.377Z,97.2
2018-02-07T04:51:51.201Z,97.1
2018-02-07T04:52:53.018Z,97.9
2018-02-07T04:53:54.806Z,97.6
2018-02-07T04:54:56.560Z,97.7
2018-02-07T04:55:58.365Z,97.3
2018-02-07T04:57:00.113Z,97.5
2018-02-07T04:58:01.899Z,97.5
2018-02-07T04:59:03.731Z,97.6
2018-02-07T05:00:05.494Z,97.3
2018-02-07T05:01:07.226Z,97.7
2018-02-07T05:02:09.903Z,97.9
2018-02-07T05:03:11.730Z,98.0
2018-02-07T05:04:13.552Z,98.4
2018-02-07T05:05:15.918Z,97.9
2018-02-07T05:06:17.705Z,97.9
2018-02-07T05:07:19.522Z,98.6
2018-02-07T05:08:21.362Z,98.7
2018-02-07T05:09:23.188Z,97.5
2018-02-07T05:10:24.919Z,97.8
2018-02-07T05:11:26.782Z,98.6
2018-02-07T05:12:28.474Z,98.4
2018-02-07T05:13:30.180Z,98.6
2018-02-07T05:14:31.979Z,97.6
2018-02-07T05:15:33.777Z,97.9
2018-02-07T05:16:35.491Z,97.5
2018-02-07T05:17:37.828Z,98.0
2018-02-07T05:18:39.630Z,97.5
2018-02-07T05:19:41.387Z,97.5
2018-02-07T05:20:43.196Z,97.8
2018-02-07T05:21:44.970Z,97.6
2018-02-07T05:22:46.710Z,97.9
2018-02-07T05:23:48.478Z,98.0
2018-02-07T05:24:50.238Z,98.0
2018-02-07T05:25:52.036Z,98.0
2018-02-07T05:26:53.785Z,98.2
2018-02-07T05:27:55.570Z,98.8
2018-02-07T05:28:57.333Z,98.5
2018-02-07T05:29:59.127Z,98.6
2018-02-07T05:31:00.894Z,98.6
2018-02-07T05:32:02.706Z,98.2
2018-02-07T05:33:04.494Z,98.6
2018-02-07T05:34:06.289Z,98.7
2018-02-07T05:35:08.860Z,98.6
2018-02-07T05:36:11.281Z,98.4
2018-02-07T05:37:13.025Z,98.6
2018-02-07T05:38:14.768Z,98.5
2018-02-07T05:39:16.475Z,98.6
2018-02-07T05:40:20.907Z,98.6
2018-02-07T05:41:22.698Z,99.0
2018-02-07T05:42:24.488Z,98.7
2018-02-07T05:43:26.242Z,98.8
2018-02-07T05:44:30.952Z,97.8
2018-02-07T05:45:32.729Z,98.6
2018-02-07T05:46:34.485Z,98.4
2018-02-07T05:47:36.858Z,98.8
2018-02-07T05:48:38.600Z,97.6
2018-02-07T05:49:41.319Z,98.1
2018-02-07T05:50:43.096Z,98.2
2018-02-07T05:51:45.818Z,98.5
2018-02-07T05:52:47.620Z,98.6
2018-02-07T05:53:50.408Z,98.4
2018-02-07T05:54:52.151Z,98.6
2018-02-07T05:55:53.961Z,98.5
2018-02-07T05:56:55.720Z,98.9
2018-02-07T05:57:57.462Z,98.0
2018-02-07T05:58:59.224Z,97.7
2018-02-07T06:00:00.993Z,97.9
2018-02-07T06:01:02.812Z,98.9
2018-02-07T06:02:04.530Z,98.6
2018-02-07T06:03:06.275Z,98.4
2018-02-07T06:04:08.078Z,98.7
2018-02-07T06:05:09.856Z,98.6
2018-02-07T06:06:11.739Z,98.7
2018-02-07T06:07:13.501Z,98.3
2018-02-07T06:08:15.839Z,98.4
2018-02-07T06:09:18.446Z,98.9
2018-02-07T06:10:20.242Z,98.4
2018-02-07T06:11:22.027Z,98.4
2018-02-07T06:12:23.787Z,98.5
2018-02-07T06:13:25.677Z,98.4
2018-02-07T06:14:27.735Z,98.3
2018-02-07T06:15:29.481Z,99.1
2018-02-07T06:16:31.584Z,99.3
2018-02-07T06:17:33.357Z,99.0
2018-02-07T06:18:35.149Z,98.9
2018-02-07T06:19:37.040Z,99.2
2018-02-07T06:20:38.784Z,99.0
2018-02-07T06:21:40.637Z,99.5
2018-02-07T06:22:42.715Z,100.0
2018-02-07T06:23:47.355Z,99.7
2018-02-07T06:24:49.142Z,99.2
2018-02-07T06:25:50.961Z,99.1
2018-02-07T06:26:53.363Z,98.9
2018-02-07T06:27:55.114Z,99.5
2018-02-07T06:28:56.913Z,99.4
2018-02-07T06:29:58.702Z,99.0
2018-02-07T06:31:01.368Z,99.0
2018-02-07T06:32:03.198Z,99.0
2018-02-07T06:33:04.938Z,98.9
2018-02-07T06:34:06.754Z,98.9
2018-02-07T06:35:15.343Z,99.1
2018-02-07T06:36:17.842Z,98.4
2018-02-07T06:37:19.805Z,98.4
2018-02-07T06:38:21.632Z,98.7
2018-02-07T06:39:23.418Z,97.6
2018-02-07T06:40:25.276Z,97.7
2018-02-07T06:41:27.855Z,97.8
2018-02-07T06:42:29.680Z,97.3
2018-02-07T06:43:32.368Z,97.0
2018-02-07T06:44:34.227Z,96.9
2018-02-07T06:45:36.907Z,97.1
2018-02-07T06:46:38.701Z,97.6
2018-02-07T06:47:40.498Z,98.1
2018-02-07T06:48:42.269Z,98.1
2018-02-07T06:49:44.922Z,98.3
2018-02-07T06:50:46.673Z,99.2
2018-02-07T06:51:48.413Z,99.3
2018-02-07T06:52:50.181Z,99.2
2018-02-07T06:53:51.971Z,99.5
2018-02-07T06:54:53.806Z,98.9
2018-02-07T06:55:55.640Z,98.9
2018-02-07T06:56:57.381Z,99.5
2018-02-07T06:57:59.122Z,99.9
2018-02-07T06:59:00.906Z,99.3
2018-02-07T07:00:02.714Z,99.8
2018-02-07T07:01:04.519Z,99.7
2018-02-07T07:02:06.320Z,98.9
2018-02-07T07:03:08.060Z,99.1
2018-02-07T07:04:09.938Z,98.3
2018-02-07T07:05:11.722Z,97.9
2018-02-07T07:06:13.495Z,97.8
2018-02-07T07:07:15.309Z,98.0
2018-02-07T07:08:19.974Z,97.5
2018-02-07T07:09:21.786Z,97.1
2018-02-07T07:10:23.649Z,97.3
2018-02-07T07:11:25.412Z,97.1
2018-02-07T07:12:27.219Z,97.1
2018-02-07T07:13:29.024Z,97.4
2018-02-07T07:14:30.850Z,97.8
2018-02-07T07:15:32.669Z,97.5
2018-02-07T07:16:34.461Z,97.7
2018-02-07T07:17:36.893Z,98.5
2018-02-07T07:18:38.691Z,99.1
2018-02-07T07:19:40.535Z,98.9
2018-02-07T07:20:42.368Z,98.8
2018-02-07T07:21:44.149Z,99.9
2018-02-07T07:22:46.856Z,100.0
2018-02-07T07:23:49.383Z,100.0
2018-02-07T07:24:51.120Z,100.0
2018-02-07T07:25:52.942Z,100.0
2018-02-07T07:26:54.690Z,100.0
2018-02-07T07:27:56.442Z,100.0
2018-02-07T07:29:01.002Z,100.0
2018-02-07T07:30:02.789Z,100.0
2018-02-07T07:31:04.644Z,99.8
2018-02-07T07:32:06.469Z,99.0
2018-02-07T07:33:08.931Z,98.6
2018-02-07T07:34:10.706Z,97.3
2018-02-07T07:35:13.395Z,96.5
2018-02-07T07:36:15.178Z,96.2
2018-02-07T07:37:16.961Z,96.6
2018-02-07T07:38:18.711Z,95.6
2018-02-07T07:39:20.507Z,95.9
2018-02-07T07:40:22.341Z,96.3
2018-02-07T07:41:24.917Z,96.1
2018-02-07T07:42:26.776Z,96.5
2018-02-07T07:43:28.627Z,96.9
2018-02-07T07:44:30.415Z,97.4
2018-02-07T07:45:32.319Z,97.2
2018-02-07T07:46:34.937Z,97.2
2018-02-07T07:47:36.727Z,97.3
2018-02-07T07:48:38.575Z,97.3
2018-02-07T07:49:40.376Z,97.5
2018-02-07T07:50:42.166Z,97.0
2018-02-07T07:51:45.146Z,97.2
2018-02-07T07:52:47.969Z,97.5
2018-02-07T07:53:49.791Z,97.6
2018-02-07T07:54:51.546Z,97.8
2018-02-07T07:55:53.303Z,97.6
2018-02-07T07:56:55.088Z,97.8
2018-02-07T07:57:56.950Z,97.4
2018-02-07T07:58:58.756Z,97.4
2018-02-07T08:00:00.556Z,97.3
2018-02-07T08:01:02.513Z,97.3
2018-02-07T08:02:06.881Z,97.8
2018-02-07T08:03:09.522Z,97.7
2018-02-07T08:04:11.303Z,97.4
2018-02-07T08:05:13.125Z,97.8
2018-02-07T08:06:15.102Z,97.8
2018-02-07T08:07:18.119Z,97.7
2018-02-07T08:08:20.068Z,97.9
2018-02-07T08:09:22.063Z,97.8
2018-02-07T08:10:30.440Z,97.7
2018-02-07T08:11:32.948Z,98.0
2018-02-07T08:12:34.689Z,98.0
2018-02-07T08:13:37.550Z,97.8
2018-02-07T08:14:39.398Z,97.6
2018-02-07T08:15:41.218Z,99.0
2018-02-07T08:16:44.010Z,98.3
2018-02-07T08:17:49.065Z,98.6
2018-02-07T08:18:50.994Z,98.8
2018-02-07T08:19:53.370Z,98.9
2018-02-07T08:20:55.181Z,97.9
2018-02-07T08:21:59.881Z,97.6
2018-02-07T08:23:01.621Z,98.0
2018-02-07T08:24:03.446Z,98.0
2018-02-07T08:25:05.292Z,97.4
2018-02-07T08:26:07.082Z,97.5
2018-02-07T08:27:08.938Z,97.5
2018-02-07T08:28:11.405Z,97.3
2018-02-07T08:29:13.171Z,97.2
2018-02-07T08:30:14.975Z,97.3
2018-02-07T08:31:17.472Z,97.3
2018-02-07T08:32:19.360Z,97.2
2018-02-07T08:33:21.135Z,96.7
2018-02-07T08:34:29.893Z,96.8
2018-02-07T08:35:31.663Z,97.0
2018-02-07T08:36:34.361Z,96.9
2018-02-07T08:37:36.204Z,96.8
2018-02-07T08:38:37.896Z,97.2
2018-02-07T08:39:39.684Z,97.2
2018-02-07T08:40:41.400Z,96.5
2018-02-07T08:41:43.164Z,96.6
2018-02-07T08:42:44.900Z,97.2
2018-02-07T08:43:46.667Z,97.2
2018-02-07T08:44:48.453Z,97.5
2018-02-07T08:45:50.245Z,97.7
2018-02-07T08:46:52.070Z,97.3
2018-02-07T08:47:53.826Z,97.0
2018-02-07T08:48:55.661Z,97.5
2018-02-07T08:49:57.405Z,97.2
2018-02-07T08:50:59.238Z,97.6
2018-02-07T08:52:01.024Z,97.2
2018-02-07T08:53:02.788Z,97.2
2018-02-07T08:54:04.544Z,97.5
2018-02-07T08:55:06.318Z,97.3
2018-02-07T08:56:08.082Z,97.4
2018-02-07T08:57:09.878Z,97.5
2018-02-07T08:58:11.640Z,96.2
2018-02-07T08:59:13.376Z,96.6
2018-02-07T09:00:15.891Z,96.7
2018-02-07T09:01:17.691Z,96.8
2018-02-07T09:02:22.361Z,96.2
2018-02-07T09:03:24.181Z,96.2
2018-02-07T09:04:26.001Z,96.6
2018-02-07T09:05:27.804Z,96.3
2018-02-07T09:06:32.442Z,95.4
2018-02-07T09:07:34.268Z,95.4
2018-02-07T09:08:35.999Z,96.0
2018-02-07T09:09:37.785Z,95.7
2018-02-07T09:10:40.375Z,96.2
2018-02-07T09:11:42.092Z,95.7
2018-02-07T09:12:43.870Z,96.1
2018-02-07T09:13:46.386Z,96.4
2018-02-07T09:14:48.219Z,96.6
2018-02-07T09:15:50.012Z,96.3
2018-02-07T09:16:52.453Z,96.3
2018-02-07T09:17:54.153Z,96.3
2018-02-07T09:18:55.894Z,96.4
2018-02-07T09:19:58.389Z,95.9
2018-02-07T09:21:00.202Z,96.0
2018-02-07T09:22:01.990Z,95.2
2018-02-07T09:23:06.375Z,95.8
2018-02-07T09:24:08.108Z,95.5
2018-02-07T09:25:09.912Z,94.6
2018-02-07T09:26:11.682Z,94.8
2018-02-07T09:27:13.484Z,95.2
2018-02-07T09:28:15.258Z,94.5
2018-02-07T09:29:17.047Z,94.8
2018-02-07T09:30:18.894Z,94.4
2018-02-07T09:31:20.648Z,94.7
2018-02-07T09:32:22.385Z,95.0
2018-02-07T09:33:24.866Z,94.7
2018-02-07T09:34:26.649Z,94.7
2018-02-07T09:35:28.425Z,95.0
2018-02-07T09:36:30.187Z,94.8
2018-02-07T09:37:32.064Z,95.2
2018-02-07T09:38:33.792Z,94.1
2018-02-07T09:39:35.590Z,93.9
2018-02-07T09:40:37.355Z,94.1
2018-02-07T09:41:39.188Z,94.0
2018-02-07T09:42:41.017Z,93.9
2018-02-07T09:43:42.812Z,94.6
2018-02-07T09:44:44.605Z,94.0
2018-02-07T09:45:46.440Z,94.1
2018-02-07T09:46:48.284Z,94.5
2018-02-07T09:47:50.181Z,94.7
2018-02-07T09:48:51.933Z,94.9
2018-02-07T09:49:53.767Z,94.6
2018-02-07T09:50:58.403Z,94.8
2018-02-07T09:52:00.193Z,95.6
2018-02-07T09:53:02.024Z,96.3
2018-02-07T09:54:03.748Z,95.8
2018-02-07T09:55:06.344Z,95.6
2018-02-07T09:56:08.146Z,95.7
2018-02-07T09:57:10.012Z,96.0
2018-02-07T09:58:12.344Z,95.6
2018-02-07T09:59:14.853Z,95.8
2018-02-07T10:00:16.682Z,96.4
2018-02-07T10:01:18.596Z,96.1
2018-02-07T10:02:20.423Z,96.3
2018-02-07T10:03:22.874Z,96.2
2018-02-07T10:04:24.724Z,96.6
2018-02-07T10:05:26.533Z,96.2
2018-02-07T10:06:28.332Z,95.4
2018-02-07T10:07:30.134Z,96.2
2018-02-07T10:08:31.933Z,96.2
2018-02-07T10:09:33.705Z,95.6
2018-02-07T10:10:35.515Z,95.8
2018-02-07T10:11:37.410Z,95.8
2018-02-07T10:12:40.005Z,95.4
2018-02-07T10:13:42.403Z,95.3
2018-02-07T10:14:44.141Z,95.8
2018-02-07T10:15:45.911Z,95.1
2018-02-07T10:16:47.709Z,95.6
2018-02-07T10:17:49.624Z,95.2
2018-02-07T10:18:51.439Z,94.9
2018-02-07T10:19:53.235Z,94.2
2018-02-07T10:20:55.017Z,93.6
2018-02-07T10:21:56.837Z,93.8
2018-02-07T10:22:58.707Z,93.6
2018-02-07T10:24:02.824Z,93.3
2018-02-07T10:25:06.353Z,93.1
2018-02-07T10:26:08.426Z,92.0
2018-02-07T10:27:10.327Z,91.6
2018-02-07T10:28:12.213Z,91.5
2018-02-07T10:29:21.075Z,90.5
2018-02-07T10:30:23.006Z,90.2
2018-02-07T10:31:25.937Z,90.0
2018-02-07T10:32:27.905Z,89.6
2018-02-07T10:33:30.083Z,89.0
2018-02-07T10:34:31.965Z,88.3
2018-02-07T10:35:34.966Z,87.8
2018-02-07T10:36:36.982Z,87.5
2018-02-07T10:37:38.982Z,87.1
2018-02-07T10:38:43.279Z,87.4
2018-02-07T10:39:45.274Z,88.4
2018-02-07T10:40:47.244Z,87.7
2018-02-07T10:41:49.293Z,88.2
2018-02-07T10:42:51.846Z,88.3
2018-02-07T10:43:54.350Z,88.0
2018-02-07T10:44:56.684Z,87.1
2018-02-07T10:45:58.642Z,86.0
2018-02-07T10:47:00.452Z,86.2
2018-02-07T10:48:02.458Z,86.6
2018-02-07T10:49:04.400Z,86.3
2018-02-07T10:50:06.271Z,86.7
2018-02-07T10:51:08.475Z,87.3
2018-02-07T10:52:10.948Z,87.1
2018-02-07T10:53:13.841Z,87.4
2018-02-07T10:54:16.344Z,88.1
2018-02-07T10:55:18.527Z,87.6
2018-02-07T10:56:21.214Z,86.2
2018-02-07T10:57:23.024Z,86.2
2018-02-07T10:58:25.715Z,84.8
2018-02-07T10:59:28.030Z,84.2
2018-02-07T11:00:30.432Z,84.1
2018-02-07T11:01:32.671Z,84.5
2018-02-07T11:02:34.888Z,85.3
2018-02-07T11:03:36.612Z,85.7
2018-02-07T11:04:38.502Z,86.1
2018-02-07T11:05:41.000Z,86.5
2018-02-07T11:06:42.842Z,85.9
2018-02-07T11:07:44.628Z,86.2
2018-02-07T11:08:46.428Z,85.9
2018-02-07T11:09:55.052Z,84.6
2018-02-07T11:10:56.863Z,83.6
2018-02-07T11:11:58.706Z,83.1
2018-02-07T11:13:00.525Z,82.0
2018-02-07T11:14:02.410Z,81.6
2018-02-07T11:15:04.208Z,82.1
2018-02-07T11:16:06.928Z,83.3
2018-02-07T11:17:09.445Z,83.0
2018-02-07T11:18:11.278Z,82.3
2018-02-07T11:19:13.070Z,81.6
2018-02-07T11:20:14.856Z,81.1
2018-02-07T11:21:16.646Z,80.7
2018-02-07T11:22:18.425Z,81.6
2018-02-07T11:23:20.336Z,81.0
2018-02-07T11:24:22.096Z,81.3
2018-02-07T11:25:23.970Z,81.9
2018-02-07T11:26:26.447Z,82.4
2018-02-07T11:27:28.240Z,81.9
2018-02-07T11:28:30.038Z,81.0
2018-02-07T11:29:31.819Z,80.3
2018-02-07T11:30:33.579Z,79.3
2018-02-07T11:31:35.640Z,77.6
2018-02-07T11:32:37.815Z,77.3
2018-02-07T11:33:40.095Z,77.2
2018-02-07T11:34:42.312Z,76.6
2018-02-07T11:35:44.307Z,75.9
2018-02-07T11:36:47.193Z,74.0
2018-02-07T11:37:49.306Z,72.9
2018-02-07T11:38:51.516Z,71.6
2018-02-07T11:39:55.082Z,71.8
2018-02-07T11:40:58.101Z,72.3
2018-02-07T11:42:01.110Z,72.8
2018-02-07T11:43:05.295Z,71.8
2018-02-07T11:44:08.597Z,72.2
2018-02-07T11:45:11.876Z,71.2
2018-02-07T11:46:16.889Z,71.0
2018-02-07T11:47:20.618Z,71.5
2018-02-07T11:48:24.744Z,72.8
2018-02-07T11:49:28.657Z,71.8
2018-02-07T11:50:32.176Z,70.9
2018-02-07T11:51:36.420Z,70.6
2018-02-07T11:52:39.427Z,69.4
2018-02-07T11:53:43.094Z,68.5
2018-02-07T11:54:45.845Z,67.6
2018-02-07T11:55:48.543Z,66.4
2018-02-07T11:56:51.697Z,64.7
2018-02-07T11:57:54.216Z,64.2
2018-02-07T11:58:57.240Z,63.8
2018-02-07T12:00:00.697Z,63.1
2018-02-07T12:01:04.140Z,63.1
2018-02-07T12:02:06.998Z,62.6
2018-02-07T12:03:09.908Z,62.6
2018-02-07T12:04:12.394Z,61.4
2018-02-07T12:05:16.191Z,60.5
2018-02-07T12:06:20.827Z,59.4
2018-02-07T12:07:24.001Z,58.8
2018-02-07T12:08:26.930Z,58.8
2018-02-07T12:09:30.217Z,58.6
2018-02-07T12:10:34.522Z,58.7
2018-02-07T12:11:40.081Z,59.9
2018-02-07T12:12:49.123Z,63.1
2018-02-07T12:13:52.616Z,61.5
2018-02-07T12:14:57.894Z,61.3
2018-02-07T12:16:00.607Z,60.4
2018-02-07T12:17:03.626Z,61.0
2018-02-07T12:18:07.237Z,62.6
2018-02-07T12:19:13.214Z,63.2
2018-02-07T12:20:16.704Z,62.5
2018-02-07T12:21:20.398Z,62.2
2018-02-07T12:22:24.054Z,61.0
2018-02-07T12:23:34.615Z,61.3
2018-02-07T12:24:38.048Z,62.0
2018-02-07T12:25:41.205Z,62.1
2018-02-07T12:26:44.479Z,61.5
2018-02-07T12:27:47.208Z,61.8
2018-02-07T12:28:49.968Z,62.2
2018-02-07T12:29:52.594Z,61.5
2018-02-07T12:30:56.913Z,61.5
2018-02-07T12:32:00.287Z,61.7
2018-02-07T12:33:03.075Z,61.5
2018-02-07T12:34:08.229Z,61.3
2018-02-07T12:35:10.961Z,60.4
2018-02-07T12:36:13.568Z,59.9
2018-02-07T12:37:16.537Z,59.5
2018-02-07T12:38:19.427Z,58.3
2018-02-07T12:39:22.778Z,56.8
2018-02-07T12:40:25.199Z,54.8
2018-02-07T12:41:28.918Z,52.9
2018-02-07T12:42:31.594Z,53.4
2018-02-07T12:43:34.104Z,55.1
2018-02-07T12:44:39.320Z,55.4
2018-02-07T12:45:41.569Z,54.8
2018-02-07T12:46:43.791Z,54.1
2018-02-07T12:47:45.945Z,52.4
2018-02-07T12:48:48.877Z,50.9
2018-02-07T12:49:51.156Z,52.4
2018-02-07T12:50:52.997Z,52.6
2018-02-07T12:51:55.480Z,51.3
2018-02-07T12:52:57.471Z,50.2
2018-02-07T12:53:59.411Z,50.8
2018-02-07T12:55:01.208Z,53.1
2018-02-07T12:56:03.299Z,53.8
2018-02-07T12:57:05.808Z,54.4
2018-02-07T12:58:08.122Z,54.3
2018-02-07T12:59:10.383Z,52.8
2018-02-07T13:00:12.648Z,51.9
2018-02-07T13:01:15.352Z,53.7
2018-02-07T13:02:17.964Z,54.6
2018-02-07T13:03:20.602Z,55.4
2018-02-07T13:04:22.507Z,55.2
2018-02-07T13:05:24.330Z,55.4
2018-02-07T13:06:26.574Z,54.6
2018-02-07T13:07:28.369Z,55.2
2018-02-07T13:08:30.360Z,55.3
2018-02-07T13:09:32.416Z,55.3
2018-02-07T13:10:35.666Z,55.8
2018-02-07T13:11:38.315Z,56.8
2018-02-07T13:12:40.793Z,57.2
2018-02-07T13:13:43.301Z,57.7
2018-02-07T13:14:45.739Z,57.5
2018-02-07T13:15:48.232Z,57.1
2018-02-07T13:16:51.533Z,57.0
2018-02-07T13:17:54.207Z,57.5
2018-02-07T13:18:59.973Z,57.9
2018-02-07T13:20:02.431Z,57.6
2018-02-07T13:21:05.025Z,57.2
2018-02-07T13:22:07.602Z,57.8
2018-02-07T13:23:10.480Z,57.8
2018-02-07T13:24:13.093Z,58.5
2018-02-07T13:25:16.249Z,58.9
2018-02-07T13:26:18.509Z,59.3
2018-02-07T13:27:20.677Z,57.9
2018-02-07T13:28:24.125Z,56.4
2018-02-07T13:29:26.733Z,55.5
2018-02-07T13:30:29.568Z,56.4
2018-02-07T13:31:31.744Z,55.8
2018-02-07T13:32:34.042Z,54.5
2018-02-07T13:33:36.727Z,53.5
2018-02-07T13:34:39.128Z,54.8
2018-02-07T13:35:44.189Z,55.4
2018-02-07T13:36:46.554Z,55.6
2018-02-07T13:37:48.879Z,55.3
2018-02-07T13:38:51.114Z,55.7
2018-02-07T13:39:53.477Z,53.7
2018-02-07T13:40:55.727Z,53.0
2018-02-07T13:41:58.208Z,54.2
2018-02-07T13:43:00.503Z,54.6
2018-02-07T13:44:03.005Z,54.4
2018-02-07T13:45:04.864Z,55.2
2018-02-07T13:46:07.668Z,54.8
2018-02-07T13:47:09.587Z,54.4
2018-02-07T13:48:14.357Z,55.7
2018-02-07T13:49:16.205Z,55.3